W. O. Watson — WDE2805 — position and weather

sailwx.info

Track history (hours):
 
Tides and Currents Weather Stations Pressure Air Temp Water Temp Dewpoint Dewpoint Depression Visibility Wind Speed Wind Dir Waves Ship Positions

W. O. Watson

Owner: Martin Operating Partnership,LP, Vidor, TX. More information available from US FCC via Universal Licensing System and Coast Guard Vessel Documentation Center.

Last reported at 2015-Jan-28 08:33 UTC. Time now 2015-Jan-28 09:17 UTC.
Position N 29°46' W 095°05'.

Length 32 m; draft 2.8 m.

MMSI: 367329860.

Date/timePositionNaut miles runAvg speedWind from/ knotsBaromVisibWave heightAir tempDewpointWater temp
2015-Jan-28 08:33N 29°46' W 095°05'2 2.4
2015-Jan-28 07:33N 29°46' W 095°07'0 0.0
2015-Jan-28 06:33N 29°46' W 095°07'0 0.0
2015-Jan-28 05:33N 29°46' W 095°07'0 0.0
2015-Jan-28 04:33N 29°46' W 095°07'0 0.0
2015-Jan-28 03:33N 29°46' W 095°07'0 0.0
2015-Jan-28 02:33N 29°46' W 095°07'0 0.0
2015-Jan-28 01:33N 29°46' W 095°07'0 0.0
2015-Jan-28 00:33N 29°46' W 095°07'0 0.0
2015-Jan-27 23:33N 29°46' W 095°07'0 0.0
2015-Jan-27 22:33N 29°46' W 095°07'0 0.0
2015-Jan-27 21:33N 29°46' W 095°07'0 0.0
2015-Jan-27 20:33N 29°46' W 095°07'0 0.0
2015-Jan-27 19:33N 29°46' W 095°07'0 0.0
2015-Jan-27 18:33N 29°46' W 095°07'0 0.1
2015-Jan-27 17:33N 29°46' W 095°07'0 0.0
2015-Jan-27 16:33N 29°46' W 095°07'0 0.0
2015-Jan-27 15:33N 29°46' W 095°07'0 0.0
2015-Jan-27 14:33N 29°46' W 095°07'2 1.8
2015-Jan-27 13:33N 29°46' W 095°05'1 0.6
2015-Jan-27 12:33N 29°46' W 095°05'0 0.0
2015-Jan-27 11:33N 29°46' W 095°05'0 0.0
2015-Jan-27 10:33N 29°46' W 095°05'0 0.0
2015-Jan-27 09:27N 29°46' W 095°05'0 0.0
2015-Jan-27 08:33N 29°46' W 095°05'1 1.1
2015-Jan-27 07:33N 29°47' W 095°04'1 1.0
2015-Jan-27 06:32N 29°46' W 095°05'0 0.0
2015-Jan-27 05:33N 29°46' W 095°05'0 0.0
2015-Jan-27 04:33N 29°46' W 095°05'0 0.0
2015-Jan-27 03:33N 29°46' W 095°05'2 1.6
2015-Jan-27 02:33N 29°46' W 095°06'1 0.8
2015-Jan-27 01:33N 29°46' W 095°07'0 0.0
2015-Jan-27 00:33N 29°46' W 095°07'0 0.0
2015-Jan-26 23:33N 29°46' W 095°07'0 0.0
2015-Jan-26 22:33N 29°46' W 095°07'0 0.0
2015-Jan-26 21:33N 29°46' W 095°07'0 0.0
2015-Jan-26 20:33N 29°46' W 095°07'0 0.0
2015-Jan-26 19:33N 29°46' W 095°07'0 0.0
2015-Jan-26 18:33N 29°46' W 095°07'0 0.0
2015-Jan-26 17:33N 29°46' W 095°07'0 0.0
2015-Jan-26 16:33N 29°46' W 095°07'0 0.0
2015-Jan-26 15:33N 29°46' W 095°07'0 0.0
2015-Jan-26 14:33N 29°46' W 095°07'1 0.1
2015-Jan-26 00:30N 29°45' W 095°06'1 1.3
2015-Jan-25 23:29N 29°47' W 095°06'0 0.1
2015-Jan-25 22:33N 29°47' W 095°06'2 2.0
2015-Jan-25 21:33N 29°47' W 095°04'1 1.2
2015-Jan-25 20:33N 29°46' W 095°05'0 0.0
2015-Jan-25 19:33N 29°46' W 095°05'0 0.0
2015-Jan-25 18:33N 29°46' W 095°05'0 0.0
2015-Jan-25 17:33N 29°46' W 095°05'0 0.0
2015-Jan-25 16:33N 29°46' W 095°05'0 0.0
2015-Jan-25 15:29N 29°46' W 095°05'0 0.0
2015-Jan-25 14:33N 29°46' W 095°05'0 0.0
2015-Jan-25 13:32N 29°46' W 095°05'0 0.0
2015-Jan-25 12:33N 29°46' W 095°05'0 0.0
2015-Jan-25 11:33N 29°46' W 095°05'0 0.0
2015-Jan-25 10:33N 29°46' W 095°05'0 0.0
2015-Jan-25 09:33N 29°46' W 095°05'0 0.0
2015-Jan-25 08:33N 29°46' W 095°05'0 0.0
2015-Jan-25 07:33N 29°46' W 095°05'0 0.0
2015-Jan-25 06:32N 29°46' W 095°05'0 0.0
2015-Jan-25 05:33N 29°46' W 095°05'1 1.4
2015-Jan-25 04:32N 29°45' W 095°06'1 0.2
2015-Jan-24 23:33N 29°46' W 095°07'2 2.2
2015-Jan-24 22:32N 29°46' W 095°05'0 0.0
2015-Jan-24 21:33N 29°46' W 095°05'0 0.0
2015-Jan-24 20:33N 29°46' W 095°05'0 0.0
2015-Jan-24 19:33N 29°46' W 095°05'0 0.0
2015-Jan-24 18:33N 29°46' W 095°05'0 0.0
2015-Jan-24 17:33N 29°46' W 095°05'0 0.0
2015-Jan-24 16:33N 29°46' W 095°05'0 0.0
2015-Jan-24 15:33N 29°46' W 095°05'0 0.0
2015-Jan-24 14:33N 29°46' W 095°05'3 3.1
2015-Jan-24 13:33N 29°44' W 095°02'6 5.7
2015-Jan-24 12:33N 29°39' W 094°58'6 6.3
2015-Jan-24 11:33N 29°34' W 094°55'6 6.2
2015-Jan-24 10:33N 29°28' W 094°51'  
2015-Jan-20 14:06N 29°46' W 091°36'4 5.5
2015-Jan-20 13:25N 29°43' W 091°33'1 1.4
2015-Jan-20 12:32N 29°42' W 091°32'0 0.0
2015-Jan-20 11:33N 29°42' W 091°32'3 2.4
2015-Jan-20 10:31N 29°41' W 091°29'5 4.9
2015-Jan-20 09:33N 29°39' W 091°24'5 5.2
2015-Jan-20 08:33N 29°38' W 091°19'6 5.9
2015-Jan-20 07:33N 29°41' W 091°13'3 3.3
2015-Jan-20 06:33N 29°41' W 091°09'3 3.3
2015-Jan-20 05:33N 29°38' W 091°06'4 3.8
2015-Jan-20 04:31N 29°37' W 091°02'4 3.9
2015-Jan-20 03:33N 29°36' W 090°58'5 5.3
2015-Jan-20 02:33N 29°33' W 090°53'37 3.6
2015-Jan-19 16:08N 29°41' W 090°11'4 5.0
2015-Jan-19 15:22N 29°44' W 090°09'13 1.9
2015-Jan-19 08:22N 29°54' W 089°59'2 1.5
2015-Jan-19 07:14N 29°55' W 089°58'0 0.3
2015-Jan-19 06:33N 29°55' W 089°58'4 3.2
2015-Jan-19 05:18N 29°58' W 090°02'3 1.4
2015-Jan-19 03:16N 29°60' W 089°59'1 0.6
2015-Jan-19 02:22N 29°60' W 089°59'0 0.0
2015-Jan-19 00:23N 29°60' W 089°59'0 0.1
2015-Jan-18 23:32N 29°60' W 089°59'0 0.0
2015-Jan-18 22:32N 29°60' W 089°59'0 0.0
2015-Jan-18 21:14N 29°60' W 089°59'0 0.0
2015-Jan-18 20:33N 29°60' W 089°59'0 0.0
2015-Jan-18 19:30N 29°60' W 089°59'0 0.0
2015-Jan-18 18:26N 29°60' W 089°59'0 0.0
2015-Jan-18 17:33N 29°60' W 089°59'0 0.1
2015-Jan-18 16:27N 29°60' W 089°59'0 0.0
2015-Jan-18 15:33N 29°60' W 089°59'0 0.0
2015-Jan-18 14:33N 29°60' W 089°59'0 0.1
2015-Jan-18 13:34N 29°60' W 089°59'0 0.0
2015-Jan-18 12:32N 29°60' W 089°59'0 0.0
2015-Jan-18 11:31N 29°60' W 089°59'0 0.0
2015-Jan-18 10:33N 29°60' W 089°59'0 0.0
2015-Jan-18 09:34N 29°60' W 089°59'  
Track history (hours):
 
Tides and Currents Weather Stations Pressure Air Temp Water Temp Dewpoint Dewpoint Depression Visibility Wind Speed Wind Dir Waves Ship Positions

W. O. Watson

Owner: Martin Operating Partnership,LP, Vidor, TX. More information available from US FCC via Universal Licensing System and Coast Guard Vessel Documentation Center.

Last reported at 2015-Jan-28 08:33 UTC. Time now 2015-Jan-28 09:17 UTC.
Position N 29°46' W 095°05'.

Length 32 m; draft 2.8 m.

MMSI: 367329860.

Date/timePositionNaut miles runAvg speedWind from/ knotsBaromVisibWave heightAir tempDewpointWater temp
2015-Jan-28 08:33N 29°46' W 095°05'2 2.4
2015-Jan-28 07:33N 29°46' W 095°07'0 0.0
2015-Jan-28 06:33N 29°46' W 095°07'0 0.0
2015-Jan-28 05:33N 29°46' W 095°07'0 0.0
2015-Jan-28 04:33N 29°46' W 095°07'0 0.0
2015-Jan-28 03:33N 29°46' W 095°07'0 0.0
2015-Jan-28 02:33N 29°46' W 095°07'0 0.0
2015-Jan-28 01:33N 29°46' W 095°07'0 0.0
2015-Jan-28 00:33N 29°46' W 095°07'0 0.0
2015-Jan-27 23:33N 29°46' W 095°07'0 0.0
2015-Jan-27 22:33N 29°46' W 095°07'0 0.0
2015-Jan-27 21:33N 29°46' W 095°07'0 0.0
2015-Jan-27 20:33N 29°46' W 095°07'0 0.0
2015-Jan-27 19:33N 29°46' W 095°07'0 0.0
2015-Jan-27 18:33N 29°46' W 095°07'0 0.1
2015-Jan-27 17:33N 29°46' W 095°07'0 0.0
2015-Jan-27 16:33N 29°46' W 095°07'0 0.0
2015-Jan-27 15:33N 29°46' W 095°07'0 0.0
2015-Jan-27 14:33N 29°46' W 095°07'2 1.8
2015-Jan-27 13:33N 29°46' W 095°05'1 0.6
2015-Jan-27 12:33N 29°46' W 095°05'0 0.0
2015-Jan-27 11:33N 29°46' W 095°05'0 0.0
2015-Jan-27 10:33N 29°46' W 095°05'0 0.0
2015-Jan-27 09:27N 29°46' W 095°05'0 0.0
2015-Jan-27 08:33N 29°46' W 095°05'1 1.1
2015-Jan-27 07:33N 29°47' W 095°04'1 1.0
2015-Jan-27 06:32N 29°46' W 095°05'0 0.0
2015-Jan-27 05:33N 29°46' W 095°05'0 0.0
2015-Jan-27 04:33N 29°46' W 095°05'0 0.0
2015-Jan-27 03:33N 29°46' W 095°05'2 1.6
2015-Jan-27 02:33N 29°46' W 095°06'1 0.8
2015-Jan-27 01:33N 29°46' W 095°07'0 0.0
2015-Jan-27 00:33N 29°46' W 095°07'0 0.0
2015-Jan-26 23:33N 29°46' W 095°07'0 0.0
2015-Jan-26 22:33N 29°46' W 095°07'0 0.0
2015-Jan-26 21:33N 29°46' W 095°07'0 0.0
2015-Jan-26 20:33N 29°46' W 095°07'0 0.0
2015-Jan-26 19:33N 29°46' W 095°07'0 0.0
2015-Jan-26 18:33N 29°46' W 095°07'0 0.0
2015-Jan-26 17:33N 29°46' W 095°07'0 0.0
2015-Jan-26 16:33N 29°46' W 095°07'0 0.0
2015-Jan-26 15:33N 29°46' W 095°07'0 0.0
2015-Jan-26 14:33N 29°46' W 095°07'1 0.1
2015-Jan-26 00:30N 29°45' W 095°06'1 1.3
2015-Jan-25 23:29N 29°47' W 095°06'0 0.1
2015-Jan-25 22:33N 29°47' W 095°06'2 2.0
2015-Jan-25 21:33N 29°47' W 095°04'1 1.2
2015-Jan-25 20:33N 29°46' W 095°05'0 0.0
2015-Jan-25 19:33N 29°46' W 095°05'0 0.0
2015-Jan-25 18:33N 29°46' W 095°05'0 0.0
2015-Jan-25 17:33N 29°46' W 095°05'0 0.0
2015-Jan-25 16:33N 29°46' W 095°05'0 0.0
2015-Jan-25 15:29N 29°46' W 095°05'0 0.0
2015-Jan-25 14:33N 29°46' W 095°05'0 0.0
2015-Jan-25 13:32N 29°46' W 095°05'0 0.0
2015-Jan-25 12:33N 29°46' W 095°05'0 0.0
2015-Jan-25 11:33N 29°46' W 095°05'0 0.0
2015-Jan-25 10:33N 29°46' W 095°05'0 0.0
2015-Jan-25 09:33N 29°46' W 095°05'0 0.0
2015-Jan-25 08:33N 29°46' W 095°05'0 0.0
2015-Jan-25 07:33N 29°46' W 095°05'0 0.0
2015-Jan-25 06:32N 29°46' W 095°05'0 0.0
2015-Jan-25 05:33N 29°46' W 095°05'1 1.4
2015-Jan-25 04:32N 29°45' W 095°06'1 0.2
2015-Jan-24 23:33N 29°46' W 095°07'2 2.2
2015-Jan-24 22:32N 29°46' W 095°05'0 0.0
2015-Jan-24 21:33N 29°46' W 095°05'0 0.0
2015-Jan-24 20:33N 29°46' W 095°05'0 0.0
2015-Jan-24 19:33N 29°46' W 095°05'0 0.0
2015-Jan-24 18:33N 29°46' W 095°05'0 0.0
2015-Jan-24 17:33N 29°46' W 095°05'0 0.0
2015-Jan-24 16:33N 29°46' W 095°05'0 0.0
2015-Jan-24 15:33N 29°46' W 095°05'0 0.0
2015-Jan-24 14:33N 29°46' W 095°05'3 3.1
2015-Jan-24 13:33N 29°44' W 095°02'6 5.7
2015-Jan-24 12:33N 29°39' W 094°58'6 6.3
2015-Jan-24 11:33N 29°34' W 094°55'6 6.2
2015-Jan-24 10:33N 29°28' W 094°51'  
2015-Jan-20 14:06N 29°46' W 091°36'4 5.5
2015-Jan-20 13:25N 29°43' W 091°33'1 1.4
2015-Jan-20 12:32N 29°42' W 091°32'0 0.0
2015-Jan-20 11:33N 29°42' W 091°32'3 2.4
2015-Jan-20 10:31N 29°41' W 091°29'5 4.9
2015-Jan-20 09:33N 29°39' W 091°24'5 5.2
2015-Jan-20 08:33N 29°38' W 091°19'6 5.9
2015-Jan-20 07:33N 29°41' W 091°13'3 3.3
2015-Jan-20 06:33N 29°41' W 091°09'3 3.3
2015-Jan-20 05:33N 29°38' W 091°06'4 3.8
2015-Jan-20 04:31N 29°37' W 091°02'4 3.9
2015-Jan-20 03:33N 29°36' W 090°58'5 5.3
2015-Jan-20 02:33N 29°33' W 090°53'37 3.6
2015-Jan-19 16:08N 29°41' W 090°11'4 5.0
2015-Jan-19 15:22N 29°44' W 090°09'13 1.9
2015-Jan-19 08:22N 29°54' W 089°59'2 1.5
2015-Jan-19 07:14N 29°55' W 089°58'0 0.3
2015-Jan-19 06:33N 29°55' W 089°58'4 3.2
2015-Jan-19 05:18N 29°58' W 090°02'3 1.4
2015-Jan-19 03:16N 29°60' W 089°59'1 0.6
2015-Jan-19 02:22N 29°60' W 089°59'0 0.0
2015-Jan-19 00:23N 29°60' W 089°59'0 0.1
2015-Jan-18 23:32N 29°60' W 089°59'0 0.0
2015-Jan-18 22:32N 29°60' W 089°59'0 0.0
2015-Jan-18 21:14N 29°60' W 089°59'0 0.0
2015-Jan-18 20:33N 29°60' W 089°59'0 0.0
2015-Jan-18 19:30N 29°60' W 089°59'0 0.0
2015-Jan-18 18:26N 29°60' W 089°59'0 0.0
2015-Jan-18 17:33N 29°60' W 089°59'0 0.1
2015-Jan-18 16:27N 29°60' W 089°59'0 0.0
2015-Jan-18 15:33N 29°60' W 089°59'0 0.0
2015-Jan-18 14:33N 29°60' W 089°59'0 0.1
2015-Jan-18 13:34N 29°60' W 089°59'0 0.0
2015-Jan-18 12:32N 29°60' W 089°59'0 0.0
2015-Jan-18 11:31N 29°60' W 089°59'0 0.0
2015-Jan-18 10:33N 29°60' W 089°59'0 0.0
2015-Jan-18 09:34N 29°60' W 089°59'  

Dump ship's entire track history